Time;durP1;ratioP1;P1;durP2;ratioP2;P2;SDS_P1;SDS_P2;PMS_P1;PMS_P2;Temp;Humidity;BMP_temperature;BMP_pressure;BME280_temperature;BME280_humidity;BME280_pressure;Samples;Min_cycle;Max_cycle;Signal;HPM_P1;HPM_P2
2021/01/21 00:00:00;;;;;;;2.40;2.20;;;10.50;99.90;;;;;;5049220;28;20273;-66
2021/01/21 00:03:18;;;;;;;4.00;2.13;;;10.60;99.90;;;;;;5074111;28;20351;-65
2021/01/21 00:06:39;;;;;;;2.83;2.17;;;10.60;99.90;;;;;;5068015;28;20243;-64
2021/01/21 00:09:58;;;;;;;3.37;2.30;;;10.70;99.90;;;;;;5065982;28;20247;-64
2021/01/21 00:13:22;;;;;;;2.03;1.93;;;10.80;99.90;;;;;;5069559;28;20268;-65
2021/01/21 00:16:46;;;;;;;2.83;2.43;;;11.00;99.90;;;;;;5070946;28;20735;-65
2021/01/21 00:20:05;;;;;;;7.30;2.53;;;11.00;99.90;;;;;;5064488;28;20589;-65
2021/01/21 00:23:24;;;;;;;2.53;1.97;;;11.10;99.90;;;;;;5065186;28;20259;-64
2021/01/21 00:26:42;;;;;;;3.33;2.17;;;11.10;99.90;;;;;;5071903;28;20281;-65
2021/01/21 00:30:05;;;;;;;2.17;2.00;;;11.20;99.90;;;;;;5069894;28;20237;-64
2021/01/21 00:33:30;;;;;;;3.60;2.13;;;11.20;99.90;;;;;;5065394;28;20235;-65
2021/01/21 00:36:48;;;;;;;2.77;2.20;;;11.00;99.90;;;;;;5055057;28;20267;-64
2021/01/21 00:40:08;;;;;;;3.70;2.20;;;10.80;99.90;;;;;;5061819;28;20245;-65
2021/01/21 00:43:29;;;;;;;4.63;1.97;;;10.80;99.90;;;;;;5058815;28;20241;-64
2021/01/21 01:15:52;;;;;;;2.40;2.13;;;10.40;99.90;;;;;;5057384;28;20230;-66
2021/01/21 01:19:09;;;;;;;2.20;2.10;;;10.20;99.90;;;;;;5059845;28;20651;-66
2021/01/21 01:22:26;;;;;;;2.20;2.10;;;10.30;99.90;;;;;;5064203;28;20258;-67
2021/01/21 01:25:43;;;;;;;3.43;2.30;;;10.30;99.90;;;;;;5057274;28;20300;-65
2021/01/21 01:40:41;;;;;;;4.03;2.13;;;10.60;99.90;;;;;;5060853;28;20240;-63
2021/01/21 01:43:58;;;;;;;2.83;2.00;;;10.70;99.90;;;;;;5052565;28;20251;-65
2021/01/21 01:47:16;;;;;;;10.67;2.17;;;10.70;99.90;;;;;;5066651;28;20263;-64
2021/01/21 01:50:33;;;;;;;5.40;2.07;;;10.50;99.90;;;;;;5062969;28;20276;-66
2021/01/21 01:53:50;;;;;;;2.57;2.20;;;10.50;99.90;;;;;;5066652;28;20708;-65
2021/01/21 01:57:07;;;;;;;2.70;1.87;;;10.50;99.90;;;;;;5064085;28;20232;-65
2021/01/21 02:04:02;;;;;;;6.13;2.67;;;10.50;99.90;;;;;;5070848;28;20322;-65
2021/01/21 02:07:23;;;;;;;2.33;2.00;;;10.50;99.90;;;;;;5067929;28;20231;-65
2021/01/21 02:10:47;;;;;;;2.40;2.20;;;10.40;99.90;;;;;;5067147;28;20269;-64
2021/01/21 02:14:13;;;;;;;2.60;2.40;;;10.40;99.90;;;;;;5069728;28;20991;-67
2021/01/21 02:17:51;;;;;;;2.70;2.33;;;10.00;99.90;;;;;;5066482;28;20227;-64
2021/01/21 02:21:47;;;;;;;2.23;1.87;;;9.90;99.90;;;;;;5062770;28;20213;-63
2021/01/21 02:25:14;;;;;;;2.20;1.90;;;10.00;99.90;;;;;;5061389;28;20663;-65
2021/01/21 02:28:52;;;;;;;2.47;1.90;;;10.20;99.90;;;;;;5064002;28;20224;-66
2021/01/21 02:32:51;;;;;;;3.30;1.83;;;10.30;99.90;;;;;;5053653;28;20224;-66
2021/01/21 02:36:16;;;;;;;2.00;2.00;;;10.40;99.90;;;;;;5061202;28;20307;-66
2021/01/21 02:39:35;;;;;;;2.63;1.87;;;10.40;99.90;;;;;;5057372;28;20219;-65
2021/01/21 02:43:00;;;;;;;3.07;1.80;;;10.40;99.90;;;;;;5063835;28;20289;-65
2021/01/21 02:46:18;;;;;;;3.93;2.00;;;10.40;99.90;;;;;;5064952;28;20266;-65
2021/01/21 02:49:36;;;;;;;4.17;2.07;;;10.30;99.90;;;;;;5063017;28;20341;-66
2021/01/21 02:52:59;;;;;;;3.43;2.00;;;10.20;99.90;;;;;;5065375;28;20223;-65
2021/01/21 02:56:21;;;;;;;5.27;3.00;;;10.10;99.90;;;;;;5058447;28;20773;-63
2021/01/21 02:59:40;;;;;;;2.83;1.20;;;9.80;99.90;;;;;;5064685;28;20824;-64
2021/01/21 03:03:36;;;;;;;2.07;1.10;;;8.80;99.90;;;;;;5056566;28;20231;-64
2021/01/21 03:06:59;;;;;;;2.87;1.17;;;8.10;99.90;;;;;;5060990;28;20219;-63
2021/01/21 03:10:26;;;;;;;2.07;1.40;;;7.80;99.90;;;;;;5053142;28;20269;-64
2021/01/21 03:13:47;;;;;;;2.60;1.10;;;7.60;99.90;;;;;;5064309;28;20227;-64
2021/01/21 03:17:05;;;;;;;3.20;1.40;;;7.50;99.90;;;;;;5064986;28;20223;-64
2021/01/21 03:20:23;;;;;;;7.07;1.50;;;7.40;99.90;;;;;;5063031;28;20266;-64
2021/01/21 03:23:42;;;;;;;1.73;1.23;;;7.30;99.90;;;;;;5059216;28;20227;-63
2021/01/21 03:27:03;;;;;;;5.90;1.20;;;7.20;99.90;;;;;;5068075;28;20250;-65
2021/01/21 03:30:22;;;;;;;3.73;1.30;;;7.10;99.90;;;;;;5067854;28;20226;-65
2021/01/21 03:33:40;;;;;;;3.77;1.40;;;7.10;99.90;;;;;;5065355;28;20295;-63
2021/01/21 03:37:01;;;;;;;4.77;1.40;;;7.00;99.90;;;;;;5059507;28;20218;-64
2021/01/21 03:40:19;;;;;;;2.83;1.40;;;7.00;99.90;;;;;;5065723;28;20227;-65
2021/01/21 03:43:38;;;;;;;4.73;1.50;;;6.90;99.90;;;;;;5061261;28;20732;-64
2021/01/21 03:46:56;;;;;;;9.10;2.00;;;6.80;99.90;;;;;;5062753;28;20525;-64
2021/01/21 03:50:17;;;;;;;1.63;1.43;;;6.60;99.90;;;;;;5060104;28;20219;-63
2021/01/21 03:53:35;;;;;;;4.20;1.30;;;6.40;99.90;;;;;;5057647;28;20223;-63
2021/01/21 03:56:54;;;;;;;5.27;1.90;;;6.30;99.90;;;;;;5069918;28;20740;-64
2021/01/21 04:00:15;;;;;;;2.03;1.20;;;6.30;99.90;;;;;;5063474;28;20275;-64
2021/01/21 04:03:36;;;;;;;7.97;1.97;;;6.30;99.90;;;;;;5066728;28;20754;-64
2021/01/21 04:07:03;;;;;;;4.77;1.33;;;6.30;99.90;;;;;;5068405;28;20642;-64
2021/01/21 04:10:32;;;;;;;4.13;1.50;;;6.30;99.90;;;;;;5068186;28;20219;-64
2021/01/21 04:14:14;;;;;;;6.43;1.53;;;6.30;99.90;;;;;;5056211;28;20223;-64
2021/01/21 04:17:37;;;;;;;8.67;1.63;;;6.30;99.90;;;;;;5064472;28;20219;-64
2021/01/21 04:20:55;;;;;;;4.70;1.50;;;6.40;99.90;;;;;;5059584;28;20713;-64
2021/01/21 04:24:13;;;;;;;2.77;2.20;;;6.40;99.90;;;;;;5069428;28;20273;-64
2021/01/21 04:27:31;;;;;;;8.87;1.90;;;6.40;99.90;;;;;;5067295;28;20852;-64
2021/01/21 04:31:01;;;;;;;4.60;1.97;;;6.40;99.90;;;;;;5061110;28;20265;-64
2021/01/21 04:34:26;;;;;;;7.40;1.90;;;6.50;99.90;;;;;;5062848;28;20270;-64
2021/01/21 04:37:45;;;;;;;10.03;1.90;;;6.40;99.90;;;;;;5070457;28;20223;-65
2021/01/21 04:41:05;;;;;;;9.80;1.97;;;6.50;99.90;;;;;;5060876;28;20327;-64
2021/01/21 04:44:27;;;;;;;14.13;2.50;;;6.50;99.90;;;;;;5072302;28;20720;-64
2021/01/21 04:48:00;;;;;;;9.27;2.60;;;6.50;99.90;;;;;;5068394;28;20249;-64
2021/01/21 04:51:21;;;;;;;10.50;2.20;;;6.50;99.90;;;;;;5063521;28;20210;-65
2021/01/21 04:54:50;;;;;;;10.33;2.33;;;6.50;99.90;;;;;;5060797;28;20219;-64
2021/01/21 04:58:17;;;;;;;12.17;2.90;;;6.50;99.90;;;;;;5067624;28;20316;-64
2021/01/21 05:01:47;;;;;;;8.33;2.33;;;6.50;99.90;;;;;;5064534;28;20796;-64
2021/01/21 05:05:13;;;;;;;10.67;2.57;;;6.40;99.90;;;;;;5060998;28;20255;-64
2021/01/21 05:08:35;;;;;;;12.67;2.53;;;6.50;99.90;;;;;;5064897;28;20385;-64
2021/01/21 05:11:54;;;;;;;11.90;2.30;;;6.60;99.90;;;;;;5069296;28;20764;-64
2021/01/21 05:15:12;;;;;;;9.93;2.50;;;6.60;99.90;;;;;;5062959;28;20235;-64
2021/01/21 05:18:33;;;;;;;11.37;2.40;;;6.60;99.90;;;;;;5072460;28;20326;-64
2021/01/21 05:21:51;;;;;;;13.53;3.53;;;6.50;99.90;;;;;;5062458;28;20227;-65
2021/01/21 05:25:20;;;;;;;9.97;2.10;;;6.40;99.90;;;;;;5061507;28;20630;-65
2021/01/21 05:28:39;;;;;;;6.40;1.97;;;6.40;99.90;;;;;;5056900;28;20310;-65
2021/01/21 05:31:57;;;;;;;6.93;2.27;;;6.40;99.90;;;;;;5064426;28;20701;-64
2021/01/21 05:35:14;;;;;;;6.97;2.00;;;6.40;99.90;;;;;;5063578;28;20621;-64
2021/01/21 05:38:33;;;;;;;11.37;2.27;;;6.30;99.90;;;;;;5069894;28;20266;-64
2021/01/21 05:41:56;;;;;;;9.47;2.20;;;6.30;99.90;;;;;;5066124;28;20235;-64
2021/01/21 05:45:19;;;;;;;8.90;2.20;;;6.30;99.90;;;;;;5056515;28;20328;-64
2021/01/21 05:48:39;;;;;;;10.77;2.03;;;6.20;99.90;;;;;;5065631;28;20310;-64
2021/01/21 05:51:59;;;;;;;11.23;2.43;;;6.10;99.90;;;;;;5062021;28;20327;-64
2021/01/21 05:55:22;;;;;;;9.10;2.23;;;6.00;99.90;;;;;;5059909;28;20231;-64
2021/01/21 05:58:42;;;;;;;8.63;2.17;;;6.00;99.90;;;;;;5067069;28;20257;-64
2021/01/21 06:02:04;;;;;;;6.30;1.87;;;6.00;99.90;;;;;;5066901;28;20226;-64
2021/01/21 06:05:24;;;;;;;8.03;2.10;;;6.00;99.90;;;;;;5060572;28;20239;-64
2021/01/21 06:08:43;;;;;;;13.13;2.40;;;5.90;99.90;;;;;;5059909;28;20616;-64
2021/01/21 06:12:11;;;;;;;11.53;2.40;;;5.90;99.90;;;;;;5062258;28;20227;-64
2021/01/21 06:15:30;;;;;;;11.93;2.63;;;5.80;99.90;;;;;;5061754;28;20319;-64
2021/01/21 06:18:51;;;;;;;8.37;2.37;;;5.80;99.90;;;;;;5069083;28;20268;-64
2021/01/21 06:22:13;;;;;;;14.50;2.70;;;5.80;99.90;;;;;;5068140;28;20647;-64
2021/01/21 06:25:32;;;;;;;10.50;2.70;;;5.80;99.90;;;;;;5064082;28;20215;-64
2021/01/21 06:28:58;;;;;;;15.07;2.37;;;5.80;99.90;;;;;;5071868;28;20264;-66
2021/01/21 06:32:21;;;;;;;11.40;2.60;;;5.80;99.90;;;;;;5068811;28;20330;-64
2021/01/21 06:35:51;;;;;;;7.93;2.07;;;5.90;99.90;;;;;;5063508;28;20219;-64
2021/01/21 06:39:19;;;;;;;12.20;2.47;;;5.80;99.90;;;;;;5066178;28;20295;-64
2021/01/21 06:43:02;;;;;;;12.80;2.90;;;5.80;99.90;;;;;;5067161;28;20742;-64
2021/01/21 06:46:22;;;;;;;8.87;2.57;;;5.70;99.90;;;;;;5068020;28;20384;-64
2021/01/21 06:49:41;;;;;;;15.00;2.60;;;5.70;99.90;;;;;;5060603;28;20270;-65
2021/01/21 06:53:04;;;;;;;13.17;3.80;;;5.80;99.90;;;;;;5059350;28;20242;-64
2021/01/21 06:56:31;;;;;;;14.27;2.97;;;5.70;99.90;;;;;;5063302;28;20308;-64
2021/01/21 06:59:55;;;;;;;8.13;2.73;;;5.80;99.90;;;;;;5055134;28;20255;-64
2021/01/21 07:03:38;;;;;;;6.63;2.93;;;5.90;99.90;;;;;;5052365;28;20223;-65
2021/01/21 07:07:12;;;;;;;12.30;3.17;;;5.90;99.90;;;;;;5047357;28;20227;-64
2021/01/21 07:10:49;;;;;;;14.53;3.40;;;6.00;99.90;;;;;;5014403;28;20744;-64
2021/01/21 07:14:10;;;;;;;10.87;2.80;;;6.00;99.90;;;;;;5044246;28;20678;-64
2021/01/21 07:17:50;;;;;;;12.70;2.70;;;6.10;99.90;;;;;;5036195;28;20323;-64
2021/01/21 07:21:16;;;;;;;20.73;3.10;;;6.10;99.90;;;;;;5052674;28;20515;-64
2021/01/21 07:24:55;;;;;;;13.83;2.40;;;6.20;99.90;;;;;;5061768;28;20222;-64
2021/01/21 07:28:24;;;;;;;7.77;2.50;;;6.10;99.90;;;;;;4986487;28;20633;-64
2021/01/21 07:35:51;;;;;;;8.87;2.30;;;6.00;99.90;;;;;;4956548;28;20292;-64
2021/01/21 07:39:12;;;;;;;9.47;2.73;;;5.90;99.90;;;;;;4986135;28;20269;-64
2021/01/21 07:42:53;;;;;;;11.70;3.87;;;5.90;99.90;;;;;;4992141;28;20230;-64
2021/01/21 07:46:23;;;;;;;12.80;2.20;;;5.90;99.90;;;;;;5032168;28;20270;-64
2021/01/21 07:50:29;;;;;;;16.80;2.50;;;5.80;99.90;;;;;;5043457;28;20231;-64
2021/01/21 07:54:06;;;;;;;9.03;2.30;;;5.80;99.90;;;;;;5040408;28;20248;-64
2021/01/21 07:57:33;;;;;;;11.53;2.43;;;5.80;99.90;;;;;;5056124;28;20259;-64
2021/01/21 08:00:53;;;;;;;6.23;2.00;;;5.80;99.90;;;;;;5047806;28;20227;-65
2021/01/21 08:04:11;;;;;;;9.87;2.07;;;5.90;99.90;;;;;;5047177;28;20345;-64
2021/01/21 08:07:44;;;;;;;8.53;2.07;;;5.90;99.90;;;;;;5054152;28;20235;-64
2021/01/21 08:11:03;;;;;;;15.20;2.27;;;5.90;99.90;;;;;;5055934;28;20427;-64
2021/01/21 08:14:23;;;;;;;8.07;2.43;;;6.00;99.90;;;;;;5052305;28;20259;-64
2021/01/21 08:17:53;;;;;;;6.87;1.63;;;6.00;99.90;;;;;;5047473;28;20674;-64
2021/01/21 08:21:21;;;;;;;6.17;1.73;;;6.10;99.90;;;;;;5052615;28;20305;-64
2021/01/21 08:24:57;;;;;;;10.67;1.97;;;6.30;99.90;;;;;;5053893;28;20235;-64
2021/01/21 08:28:18;;;;;;;12.03;2.10;;;6.40;99.90;;;;;;5051118;28;20606;-64
2021/01/21 08:31:42;;;;;;;12.10;2.47;;;6.30;99.90;;;;;;5046423;28;20216;-64
2021/01/21 08:35:33;;;;;;;5.07;2.33;;;6.20;99.90;;;;;;5047127;28;20219;-64
2021/01/21 08:39:11;;;;;;;10.63;2.13;;;6.20;99.90;;;;;;5049514;28;20228;-64
2021/01/21 08:42:29;;;;;;;5.17;2.00;;;6.10;99.90;;;;;;5048764;28;20259;-64
2021/01/21 08:45:47;;;;;;;12.13;1.97;;;6.10;99.90;;;;;;5050753;28;20239;-64
2021/01/21 08:49:15;;;;;;;7.27;2.00;;;6.00;99.90;;;;;;5048403;28;20231;-64
2021/01/21 08:52:36;;;;;;;5.87;2.03;;;6.10;99.90;;;;;;5049357;28;20224;-64
2021/01/21 08:55:56;;;;;;;9.87;2.30;;;6.10;99.90;;;;;;5043812;28;20219;-64
2021/01/21 08:59:27;;;;;;;8.47;2.30;;;6.10;99.90;;;;;;5071519;28;20286;-64
2021/01/21 09:02:55;;;;;;;4.87;1.80;;;6.10;99.90;;;;;;5062717;28;20283;-65
2021/01/21 09:06:18;;;;;;;5.03;2.00;;;6.20;99.90;;;;;;5070160;28;20226;-65
2021/01/21 09:09:50;;;;;;;5.50;1.73;;;6.30;99.90;;;;;;5073888;28;20220;-64
2021/01/21 09:13:20;;;;;;;9.10;1.87;;;6.40;99.90;;;;;;5073976;28;20307;-65
2021/01/21 09:16:42;;;;;;;7.17;1.83;;;6.50;99.90;;;;;;5076459;28;20294;-64
2021/01/21 09:20:02;;;;;;;3.90;1.90;;;6.70;99.90;;;;;;5066121;28;20231;-64
2021/01/21 09:23:26;;;;;;;8.17;2.17;;;6.70;99.90;;;;;;5064907;28;20303;-64
2021/01/21 09:32:26;;;;;;;12.47;2.37;;;6.80;99.90;;;;;;5063475;28;20218;-64
2021/01/21 09:36:10;;;;;;;10.00;2.10;;;6.90;99.90;;;;;;5059135;28;20214;-63
2021/01/21 09:39:32;;;;;;;10.13;1.90;;;7.00;99.90;;;;;;5068503;28;20292;-64
2021/01/21 09:42:59;;;;;;;2.60;1.87;;;7.20;99.90;;;;;;5066541;28;20253;-64
2021/01/21 09:46:20;;;;;;;6.03;1.90;;;7.20;99.90;;;;;;5075383;28;20227;-65
2021/01/21 09:49:48;;;;;;;10.40;1.97;;;7.10;99.90;;;;;;5070655;28;20223;-65
2021/01/21 09:53:06;;;;;;;10.83;1.93;;;7.10;99.90;;;;;;5062844;28;20266;-63
2021/01/21 09:56:28;;;;;;;5.00;1.90;;;7.20;99.90;;;;;;5070864;28;20246;-64
2021/01/21 09:59:56;;;;;;;6.53;2.40;;;7.20;99.90;;;;;;5056585;28;20301;-64
2021/01/21 10:03:15;;;;;;;10.30;2.27;;;7.20;99.90;;;;;;5057113;28;20215;-64
2021/01/21 10:06:37;;;;;;;10.43;2.03;;;7.20;99.90;;;;;;5067722;28;20704;-64
2021/01/21 10:09:55;;;;;;;8.20;2.17;;;7.20;99.90;;;;;;5070137;28;20569;-64
2021/01/21 10:13:16;;;;;;;7.67;2.10;;;7.30;99.90;;;;;;5060814;28;20258;-64
2021/01/21 10:16:34;;;;;;;8.57;2.00;;;7.30;99.90;;;;;;5058710;28;20266;-64
2021/01/21 10:19:53;;;;;;;9.20;2.53;;;7.40;99.90;;;;;;5068592;28;20227;-64
2021/01/21 10:23:12;;;;;;;7.27;1.90;;;7.60;99.90;;;;;;5065789;28;20298;-64
2021/01/21 10:26:33;;;;;;;5.83;1.90;;;7.60;99.90;;;;;;5061149;28;20277;-64
2021/01/21 10:29:51;;;;;;;10.80;2.50;;;7.80;99.90;;;;;;5059857;28;20250;-64
2021/01/21 10:33:25;;;;;;;4.87;1.83;;;7.80;99.90;;;;;;5062969;28;20227;-64
2021/01/21 10:36:43;;;;;;;8.57;2.17;;;7.80;99.90;;;;;;5068782;28;20239;-64
2021/01/21 10:40:02;;;;;;;9.07;2.40;;;7.90;99.90;;;;;;5076983;28;20297;-64
2021/01/21 10:43:20;;;;;;;11.23;2.10;;;7.80;99.90;;;;;;5069432;28;20252;-64
2021/01/21 10:46:38;;;;;;;4.90;1.93;;;7.90;99.90;;;;;;5054348;28;20307;-64
2021/01/21 10:49:56;;;;;;;5.93;2.10;;;7.90;99.90;;;;;;5065777;28;20227;-64
2021/01/21 10:53:14;;;;;;;5.37;2.03;;;7.90;99.90;;;;;;5065797;28;20223;-64
2021/01/21 10:56:33;;;;;;;8.43;2.00;;;8.00;99.90;;;;;;5064947;28;20273;-64
2021/01/21 10:59:51;;;;;;;5.40;1.70;;;8.00;99.90;;;;;;5071437;28;20273;-64
2021/01/21 11:03:14;;;;;;;10.30;1.73;;;7.90;99.90;;;;;;5058356;28;20226;-64
2021/01/21 11:06:39;;;;;;;9.43;1.77;;;7.80;99.90;;;;;;5087188;28;20613;-64
2021/01/21 11:10:08;;;;;;;6.40;1.90;;;7.70;99.90;;;;;;5071471;28;20231;-64
2021/01/21 11:13:48;;;;;;;10.13;2.40;;;7.60;99.90;;;;;;5072959;28;20234;-65
2021/01/21 11:17:06;;;;;;;5.80;1.67;;;7.50;99.90;;;;;;5072792;28;20222;-64
2021/01/21 11:20:25;;;;;;;7.17;2.20;;;7.70;99.90;;;;;;5060664;28;20232;-64
2021/01/21 11:23:43;;;;;;;4.50;1.83;;;7.80;99.90;;;;;;5067180;28;20278;-64
2021/01/21 11:27:04;;;;;;;4.60;1.93;;;7.90;99.90;;;;;;5065097;28;20628;-65
2021/01/21 11:30:24;;;;;;;3.70;2.10;;;8.00;99.90;;;;;;5063776;28;21865;-64
2021/01/21 11:33:44;;;;;;;2.30;1.80;;;7.90;99.90;;;;;;5065190;28;20263;-64
2021/01/21 11:37:05;;;;;;;6.47;1.73;;;8.00;99.90;;;;;;5070075;28;20218;-64
2021/01/21 11:40:36;;;;;;;5.80;1.87;;;8.00;99.90;;;;;;5084125;28;20238;-64
2021/01/21 11:43:59;;;;;;;6.47;2.00;;;8.00;99.90;;;;;;5077844;28;20222;-64
2021/01/21 11:47:18;;;;;;;4.27;1.73;;;8.00;99.90;;;;;;5075962;28;20257;-64
2021/01/21 11:50:40;;;;;;;5.67;1.70;;;8.00;99.90;;;;;;5080351;28;20230;-64
2021/01/21 11:53:58;;;;;;;5.80;1.57;;;8.00;99.90;;;;;;5069128;28;20219;-64
2021/01/21 11:57:20;;;;;;;5.90;1.90;;;8.10;99.90;;;;;;5069219;28;20597;-64
2021/01/21 12:00:51;;;;;;;8.13;1.63;;;8.20;99.90;;;;;;5074697;28;20230;-64
2021/01/21 12:04:12;;;;;;;3.97;2.23;;;8.20;99.90;;;;;;5068794;28;20299;-64
2021/01/21 12:08:21;;;;;;;6.63;1.97;;;8.30;99.90;;;;;;5065854;28;20763;-64
2021/01/21 12:11:44;;;;;;;5.03;1.80;;;8.30;99.90;;;;;;5073523;28;20266;-64
2021/01/21 12:15:03;;;;;;;6.20;1.80;;;8.40;99.90;;;;;;5065383;28;20773;-64
2021/01/21 12:18:28;;;;;;;6.13;1.80;;;8.40;99.90;;;;;;5068468;28;20231;-64
2021/01/21 12:21:46;;;;;;;12.30;1.97;;;8.40;99.90;;;;;;5056469;28;20220;-65
2021/01/21 12:25:05;;;;;;;8.30;2.00;;;8.40;99.90;;;;;;5064107;28;20238;-64
2021/01/21 12:28:23;;;;;;;6.13;2.17;;;8.60;99.90;;;;;;5068383;28;20230;-64
2021/01/21 12:31:41;;;;;;;11.10;1.97;;;8.60;99.90;;;;;;5065797;28;20651;-64
2021/01/21 12:34:59;;;;;;;4.83;1.60;;;8.60;99.90;;;;;;5069584;28;20727;-64
2021/01/21 12:38:18;;;;;;;10.93;2.07;;;8.60;99.90;;;;;;5068765;28;20900;-64
2021/01/21 12:41:36;;;;;;;7.20;2.13;;;8.90;99.90;;;;;;5076156;28;20215;-64
2021/01/21 12:44:54;;;;;;;4.60;1.93;;;9.10;99.90;;;;;;5073880;28;20711;-64
2021/01/21 12:48:16;;;;;;;7.93;1.60;;;9.10;99.90;;;;;;5073966;28;20231;-64
2021/01/21 12:51:34;;;;;;;5.50;1.77;;;8.90;99.90;;;;;;5072131;28;20708;-64
2021/01/21 12:54:54;;;;;;;8.50;2.10;;;8.90;99.90;;;;;;5066107;28;20304;-64
2021/01/21 12:58:12;;;;;;;8.23;1.80;;;9.00;99.90;;;;;;5067651;28;20794;-64
2021/01/21 13:01:30;;;;;;;6.83;1.90;;;9.10;99.90;;;;;;5065039;28;20234;-64
2021/01/21 13:04:48;;;;;;;5.03;1.80;;;9.00;99.90;;;;;;5073395;28;20598;-64
2021/01/21 13:08:06;;;;;;;5.33;1.70;;;9.00;99.90;;;;;;5068492;28;20377;-64
2021/01/21 13:11:25;;;;;;;5.90;2.13;;;9.10;99.90;;;;;;5075366;28;20227;-64
2021/01/21 13:14:43;;;;;;;4.33;1.70;;;9.00;99.90;;;;;;5073804;28;20227;-64
2021/01/21 13:18:01;;;;;;;5.00;1.70;;;8.90;99.90;;;;;;5064254;28;20291;-64
2021/01/21 13:21:23;;;;;;;11.97;1.60;;;8.80;99.90;;;;;;5070291;28;20258;-64
2021/01/21 13:24:41;;;;;;;3.70;1.50;;;8.80;99.90;;;;;;5071333;28;20678;-64
2021/01/21 13:28:00;;;;;;;6.03;2.07;;;9.00;99.90;;;;;;5069741;28;20223;-64
2021/01/21 13:31:29;;;;;;;4.77;1.60;;;9.00;99.90;;;;;;5067794;28;20246;-65
2021/01/21 13:34:48;;;;;;;6.60;1.70;;;8.90;99.90;;;;;;5072467;28;20231;-65
2021/01/21 13:38:06;;;;;;;4.53;1.80;;;8.80;99.90;;;;;;5068844;28;20223;-63
2021/01/21 13:41:26;;;;;;;5.03;2.40;;;8.70;99.90;;;;;;5068424;28;20219;-65
2021/01/21 13:44:45;;;;;;;7.43;2.30;;;8.60;99.90;;;;;;5069282;28;20727;-64
2021/01/21 13:48:03;;;;;;;4.00;1.73;;;8.60;99.90;;;;;;5073535;28;20304;-64
2021/01/21 13:51:22;;;;;;;6.67;2.00;;;8.50;99.90;;;;;;5071737;28;20629;-65
2021/01/21 13:54:49;;;;;;;8.57;1.70;;;8.50;99.90;;;;;;5071459;28;20220;-64
2021/01/21 13:58:07;;;;;;;7.33;1.90;;;8.50;99.90;;;;;;5064994;28;20326;-64
2021/01/21 14:01:25;;;;;;;4.27;2.10;;;8.40;99.90;;;;;;5068543;28;20326;-65
2021/01/21 14:04:47;;;;;;;4.10;1.87;;;8.40;99.90;;;;;;5077378;28;20601;-64
2021/01/21 14:08:05;;;;;;;9.03;2.17;;;8.40;99.90;;;;;;5056375;28;20251;-64
2021/01/21 14:11:27;;;;;;;5.90;2.07;;;8.40;99.90;;;;;;5064456;28;20226;-65
2021/01/21 14:14:45;;;;;;;6.53;2.30;;;8.40;99.90;;;;;;5070161;28;20305;-64
2021/01/21 14:18:04;;;;;;;6.53;2.50;;;8.40;99.90;;;;;;5067923;28;20736;-64
2021/01/21 14:21:22;;;;;;;12.37;2.60;;;8.40;99.90;;;;;;5065399;28;20223;-64
2021/01/21 14:24:40;;;;;;;8.80;2.00;;;8.40;99.90;;;;;;5069470;28;20232;-64
2021/01/21 14:28:01;;;;;;;10.00;2.00;;;8.30;99.90;;;;;;5069405;28;20285;-65
2021/01/21 14:31:37;;;;;;;8.67;2.10;;;8.30;99.90;;;;;;5066703;28;20223;-65
2021/01/21 14:35:00;;;;;;;13.90;2.23;;;8.30;99.90;;;;;;5081156;28;20223;-64
2021/01/21 14:38:35;;;;;;;9.60;2.30;;;8.30;99.90;;;;;;5064883;28;20249;-64
2021/01/21 14:41:57;;;;;;;9.67;2.40;;;8.30;99.90;;;;;;5067558;28;20224;-64
2021/01/21 14:45:32;;;;;;;7.63;2.10;;;8.40;99.90;;;;;;5069620;28;20708;-64
2021/01/21 14:49:11;;;;;;;8.17;2.57;;;8.30;99.90;;;;;;5081394;28;20265;-64
2021/01/21 14:52:31;;;;;;;10.17;2.20;;;8.40;99.90;;;;;;5068714;28;20255;-64
2021/01/21 14:55:49;;;;;;;14.27;2.50;;;8.40;99.90;;;;;;5061077;28;20652;-64
2021/01/21 14:59:19;;;;;;;6.20;2.40;;;8.30;99.90;;;;;;5071999;28;20235;-65
2021/01/21 15:02:51;;;;;;;11.63;2.30;;;8.30;99.90;;;;;;5077804;28;20269;-64
2021/01/21 15:06:21;;;;;;;15.93;2.47;;;8.40;99.90;;;;;;5070618;28;20223;-64
2021/01/21 15:09:48;;;;;;;10.30;2.23;;;8.40;99.90;;;;;;5055552;28;20297;-64
2021/01/21 15:13:53;;;;;;;6.33;2.23;;;8.40;99.90;;;;;;5062619;28;20293;-65
2021/01/21 15:17:11;;;;;;;13.20;2.47;;;8.40;99.90;;;;;;5064532;28;20465;-64
2021/01/21 15:20:34;;;;;;;8.53;2.33;;;8.40;99.90;;;;;;5076744;28;20227;-64
2021/01/21 15:23:52;;;;;;;10.83;2.80;;;8.30;99.90;;;;;;5069533;28;20272;-64
2021/01/21 15:27:18;;;;;;;7.20;1.90;;;8.30;99.90;;;;;;5067837;28;20239;-65
2021/01/21 15:34:11;;;;;;;6.67;2.17;;;8.30;99.90;;;;;;5064812;28;20215;-64
2021/01/21 15:37:33;;;;;;;14.43;2.43;;;8.30;99.90;;;;;;5069685;28;20233;-64
2021/01/21 15:40:52;;;;;;;11.53;2.40;;;8.30;99.90;;;;;;5055396;28;20790;-64
2021/01/21 15:44:18;;;;;;;10.53;2.70;;;8.30;99.90;;;;;;5067387;28;20210;-64
2021/01/21 15:47:42;;;;;;;6.47;2.07;;;8.10;99.90;;;;;;5063173;28;20227;-65
2021/01/21 15:51:04;;;;;;;8.13;2.00;;;7.90;99.90;;;;;;5064479;28;20258;-64
2021/01/21 15:54:26;;;;;;;7.03;1.90;;;7.80;99.90;;;;;;5061408;28;20383;-64
2021/01/21 15:57:44;;;;;;;5.73;1.57;;;7.80;99.90;;;;;;5057446;28;20281;-64
2021/01/21 16:01:04;;;;;;;8.47;2.70;;;7.70;99.90;;;;;;5063653;28;20356;-64
2021/01/21 16:04:22;;;;;;;7.07;2.30;;;7.60;99.90;;;;;;5076103;28;20255;-64
2021/01/21 16:07:40;;;;;;;4.27;2.13;;;7.60;99.90;;;;;;5062557;28;20254;-64
2021/01/21 16:11:04;;;;;;;11.33;4.70;;;7.50;99.90;;;;;;5064908;28;20269;-64
2021/01/21 16:14:22;;;;;;;16.80;6.47;;;7.40;99.90;;;;;;5067220;28;20337;-64
2021/01/21 16:17:47;;;;;;;17.17;5.57;;;7.20;99.90;;;;;;5061001;28;20261;-64
2021/01/21 16:21:05;;;;;;;10.20;4.00;;;7.10;99.90;;;;;;5069872;28;20314;-64
2021/01/21 16:24:25;;;;;;;7.57;3.93;;;7.00;99.90;;;;;;5072532;28;20285;-64
2021/01/21 16:27:43;;;;;;;13.03;4.30;;;6.90;99.90;;;;;;5064528;28;20215;-64
2021/01/21 16:31:04;;;;;;;9.37;2.40;;;6.80;99.90;;;;;;5070354;28;20711;-64
2021/01/21 16:34:22;;;;;;;7.83;2.40;;;6.80;99.90;;;;;;5075716;28;20299;-64
2021/01/21 16:37:39;;;;;;;6.43;3.30;;;6.70;99.90;;;;;;5073577;28;20231;-63
2021/01/21 16:41:05;;;;;;;6.67;2.10;;;6.60;99.90;;;;;;5067055;28;20258;-63
2021/01/21 16:44:23;;;;;;;6.13;2.70;;;6.60;99.90;;;;;;5078220;28;20302;-63
2021/01/21 16:47:42;;;;;;;8.77;2.87;;;6.50;99.90;;;;;;5081935;28;20253;-63
2021/01/21 16:51:00;;;;;;;15.87;2.57;;;6.50;99.90;;;;;;5068404;28;20688;-63
2021/01/21 16:54:19;;;;;;;5.80;2.30;;;6.40;99.90;;;;;;5076782;28;20266;-63
2021/01/21 16:57:40;;;;;;;10.03;2.90;;;6.40;99.90;;;;;;5061143;28;20278;-63
2021/01/21 17:01:06;;;;;;;9.47;3.23;;;6.40;99.90;;;;;;5073014;28;20246;-63
2021/01/21 17:04:24;;;;;;;8.67;2.57;;;6.30;99.90;;;;;;5070577;28;20346;-63
2021/01/21 17:07:43;;;;;;;8.27;2.33;;;6.20;99.90;;;;;;5069062;28;20720;-63
2021/01/21 17:11:04;;;;;;;7.60;2.80;;;6.20;99.90;;;;;;5064239;28;20231;-63
2021/01/21 17:14:24;;;;;;;14.20;4.63;;;6.20;99.90;;;;;;5056861;28;20235;-63
2021/01/21 17:17:50;;;;;;;11.47;5.60;;;6.20;99.90;;;;;;5064128;28;20235;-63
2021/01/21 17:21:12;;;;;;;19.27;4.97;;;6.20;99.90;;;;;;5068633;28;20781;-63
2021/01/21 17:24:31;;;;;;;16.20;4.50;;;6.10;99.90;;;;;;5057508;28;20299;-63
2021/01/21 17:27:49;;;;;;;11.13;3.47;;;6.10;99.90;;;;;;5065316;28;20214;-62
2021/01/21 17:31:07;;;;;;;21.30;4.20;;;6.00;99.90;;;;;;5064937;28;20318;-63
2021/01/21 17:34:28;;;;;;;21.53;8.60;;;6.00;99.90;;;;;;5059924;28;20259;-63
2021/01/21 17:38:02;;;;;;;15.93;6.93;;;6.00;99.90;;;;;;5060323;28;20237;-63
2021/01/21 17:41:25;;;;;;;102.27;36.80;;;6.00;99.90;;;;;;5067831;28;20228;-63
2021/01/21 17:44:47;;;;;;;51.67;21.37;;;6.00;99.90;;;;;;5057818;28;20220;-63
2021/01/21 17:48:06;;;;;;;42.03;16.83;;;6.00;99.90;;;;;;5059821;28;20224;-63
2021/01/21 17:51:32;;;;;;;32.47;13.07;;;6.00;99.90;;;;;;5059224;28;20231;-63
2021/01/21 17:54:56;;;;;;;16.60;4.73;;;6.00;99.90;;;;;;5065184;28;20250;-61
2021/01/21 17:58:14;;;;;;;14.47;4.50;;;6.00;99.90;;;;;;5067642;28;20242;-61
2021/01/21 18:01:36;;;;;;;14.60;4.67;;;6.00;99.90;;;;;;5071364;28;20304;-61
2021/01/21 18:05:00;;;;;;;24.80;5.70;;;6.00;99.90;;;;;;5074080;28;20237;-61
2021/01/21 18:08:19;;;;;;;16.03;4.77;;;6.00;99.90;;;;;;5066698;28;20223;-61
2021/01/21 18:11:37;;;;;;;20.03;4.97;;;6.10;99.90;;;;;;5060103;28;20632;-61
2021/01/21 18:14:59;;;;;;;22.37;5.30;;;6.10;99.90;;;;;;5067918;28;20728;-61
2021/01/21 18:18:21;;;;;;;16.00;4.70;;;6.10;99.90;;;;;;5068246;28;20761;-61
2021/01/21 18:21:40;;;;;;;18.70;4.83;;;6.10;99.90;;;;;;5059034;28;20279;-61
2021/01/21 18:25:01;;;;;;;23.00;7.87;;;6.10;99.90;;;;;;5068652;28;20290;-61
2021/01/21 18:28:34;;;;;;;17.17;6.20;;;6.10;99.90;;;;;;5070939;28;20349;-61
2021/01/21 18:32:02;;;;;;;19.63;4.70;;;6.10;99.90;;;;;;5060851;28;20261;-61
2021/01/21 18:35:27;;;;;;;18.43;4.47;;;6.10;99.90;;;;;;5067119;28;20265;-61
2021/01/21 18:39:22;;;;;;;11.47;4.13;;;6.10;99.90;;;;;;5009405;28;20600;-61
2021/01/21 18:42:43;;;;;;;13.67;5.50;;;6.20;99.90;;;;;;5065417;28;20693;-61